Flight Track Log - Related Links

Times and Time Zones

All times are in EDT time to prevent confusion due to time zone crossing. See the EJA982 flight status page for this flight to view local times or setup timezone preferences in your user account.

Time Position Orientation Groundspeed Altitude Reporting Facility
EDT Latitude Longitude Course Direction KTS MPH feet Rate Location/Type
Sat 10:36:12 PM 37.6303 -122.3967 295° West 172 198 29,000  Level Oakland Center
Sat 10:36:49 PM 37.6500 -122.4500 295° West 244 281 3,300 -6,495 Descending Northern Cal TRACON
Sat 10:39:14 PM 37.6039 -122.6133 250° West 273 314 9,300 2,650 Climbing Oakland Center
Sat 10:40:15 PM 37.5236 -122.6256 187° South 297 342 12,400 2,607 Climbing Oakland Center
Sat 10:41:16 PM 37.4311 -122.6156 175° South 332 382 14,600 1,918 Climbing Oakland Center
Sat 10:42:17 PM 37.3261 -122.6042 175° South 375 432 16,300 1,967 Climbing Oakland Center
Sat 10:43:18 PM 37.1939 -122.5914 176° South 396 456 18,600 2,115 Climbing Oakland Center
Sat 10:44:19 PM 37.0828 -122.5825 176° South 401 461 20,600 1,967 Climbing Oakland Center
Sat 10:45:20 PM 36.9700 -122.5675 174° South 407 468 22,600 1,869 Climbing Oakland Center
Sat 10:46:21 PM 36.8767 -122.4803 143° Southeast 421 484 24,400 1,623 Climbing Oakland Center
Sat 10:47:22 PM 36.7836 -122.3836 140° Southeast 435 501 25,900 1,426 Climbing Oakland Center
Sat 10:48:23 PM 36.6875 -122.2825 140° Southeast 450 518 27,300 1,230 Climbing Oakland Center
Sat 10:49:24 PM 36.5881 -122.1778 140° Southeast 465 535 28,400 836 Climbing Oakland Center
Sat 10:50:25 PM 36.4836 -122.0706 140° Southeast 481 554 29,000 295 Climbing Oakland Center
Sat 10:51:26 PM 36.3764 -121.9581 140° Southeast 499 574 29,000  Level Oakland Center
Sat 10:52:27 PM 36.2669 -121.8411 139° Southeast 513 590 29,000  Level Oakland Center
Sat 10:53:28 PM 36.1578 -121.7264 140° Southeast 519 597 29,000  Level Oakland Center
Sat 10:54:29 PM 36.0228 -121.5889 141° Southeast 523 602 29,000  Level Oakland Center
Sat 10:55:30 PM 35.9108 -121.4733 140° Southeast 524 603 29,000  Level Oakland Center
Sat 10:56:31 PM 35.7989 -121.3597 141° Southeast 525 604 29,000  Level Oakland Center
Sat 10:57:32 PM 35.6869 -121.2453 140° Southeast 524 603 29,000 -492 Level Oakland Center
Sat 10:58:33 PM 35.5744 -121.1314 141° Southeast 525 604 28,000 -1,636 Descending Oakland Center
Sat 10:59:33 PM 35.4656 -121.0200 140° Southeast 518 596 25,700 -1,983 Descending Oakland Center
Sat 11:00:34 PM 35.3611 -120.9158 141° Southeast 499 574 24,000 -934 Descending Oakland Center
Sat 11:01:35 PM 35.2600 -120.8147 141° Southeast 481 554 23,800 -1,279 Descending Oakland Center
Sat 11:02:36 PM 35.1600 -120.7139 140° Southeast 474 545 21,400 -2,311 Descending Oakland Center
Sat 11:03:37 PM 35.0589 -120.6114 140° Southeast 476 548 19,100 -2,607 Descending Oakland Center
Sat 11:04:38 PM 34.9422 -120.4947 141° Southeast 463 533 16,100 -2,410 Descending Oakland Center
Sat 11:05:39 PM 34.8564 -120.4103 141° Southeast 451 519 14,200 -1,810 Descending Oakland Center
Sat 11:06:34 PM 34.7756 -120.3317 141° Southeast 364 419 12,600 -1,707 Descending Los Angeles Center
Sat 11:07:35 PM 34.6983 -120.2647 145° Southeast 322 371 10,900 -1,636 Descending Los Angeles Center
Sat 11:08:35 PM 34.6319 -120.2078 145° Southeast 302 348 9,300 -942 Descending Los Angeles Center
Sat 11:09:36 PM 34.5625 -120.1464 144° Southeast 294 338 9,000 -836 Descending Los Angeles Center
Sat 11:10:37 PM 34.4986 -120.0911 145° Southeast 290 334 7,600 -1,587 Descending Los Angeles Center
Sat 11:11:37 PM 34.4314 -120.0319 144° Southeast 285 328 5,800 -1,736 Descending Los Angeles Center
Sat 11:12:38 PM 34.3892 -119.9672 128° Southeast 261 300 4,100 -1,636 Descending Los Angeles Center
Sat 11:13:38 PM 34.3758 -119.8881 102° East 238 274 2,500 -1,041 Descending Los Angeles Center
Sat 11:14:39 PM 34.3725 -119.8136 93° East 215 247 2,000 -689 Descending Los Angeles Center
Sat 11:15:40 PM 34.4092 -119.7942 24° Northeast 179 206 1,100 -715 Descending Los Angeles Center
Sat 11:17:10 PM 34.4447 -119.8458 310° West 169 194 200 -600 Descending Los Angeles Center

Login

Don't have an account? Register now (free) for customized features, flight alerts, and more!